Terminal Aerodrome Forecast
Issued by NWS

Home | Current Version | Previous Version | Text Only | Print | Product List | Glossary On
Versions: 1 2 3 4 5 6 7 8 9 10 11 12
000
FTUS42 KMHX 281100
TAFOAJ
TAF
KOAJ 281126Z 2812/2912 23004KT P6SM SCT040 BKN120
     FM281600 22005KT P6SM OVC040
     FM282300 23003KT P6SM OVC015
     FM290400 24002KT 5SM BR VCSH OVC010
     FM290700 30003KT 2SM -RA BR OVC007
      AMD LTD TO CLD VIS AND WIND=

USA.gov is the U.S. government's official web portal to all federal, state and local government web resources and services.